Time;durP1;ratioP1;P1;durP2;ratioP2;P2;SDS_P1;SDS_P2;PMS_P1;PMS_P2;Temp;Humidity;BMP_temperature;BMP_pressure;BME280_temperature;BME280_humidity;BME280_pressure;Samples;Min_cycle;Max_cycle;Signal;HPM_P1;HPM_P2
2023/10/01 00:00:17;;;;;;;17.20;10.70;;;14.60;99.90;;;;;;4935948;29;20031;-89
2023/10/01 00:02:42;;;;;;;14.23;8.68;;;14.60;99.90;;;;;;4934012;28;20492;-89
2023/10/01 00:05:09;;;;;;;15.65;10.05;;;14.50;99.90;;;;;;4933956;29;20055;-89
2023/10/01 00:07:37;;;;;;;16.92;10.02;;;14.50;99.90;;;;;;4934425;29;20036;-89
2023/10/01 00:10:06;;;;;;;13.18;10.07;;;14.40;99.90;;;;;;4933969;28;20032;-89
2023/10/01 00:12:33;;;;;;;17.92;9.77;;;14.30;99.90;;;;;;4933349;28;20042;-88
2023/10/01 00:14:58;;;;;;;15.27;9.82;;;14.20;99.90;;;;;;4933418;29;20024;-88
2023/10/01 00:17:24;;;;;;;16.58;10.20;;;14.10;99.90;;;;;;4949752;29;20110;-89
2023/10/01 00:19:49;;;;;;;14.93;9.48;;;14.10;99.90;;;;;;4949614;29;20192;-89
2023/10/01 00:22:17;;;;;;;15.48;9.40;;;14.10;99.90;;;;;;4950061;28;20019;-88
2023/10/01 00:24:43;;;;;;;15.73;9.55;;;14.10;99.90;;;;;;4949908;28;20024;-89
2023/10/01 00:27:09;;;;;;;17.33;9.48;;;14.10;99.90;;;;;;4946845;29;20484;-89
2023/10/01 00:29:35;;;;;;;15.65;9.85;;;14.10;99.90;;;;;;4916202;29;20020;-89
2023/10/01 00:32:00;;;;;;;17.50;10.68;;;14.10;99.90;;;;;;4927235;29;20623;-89
2023/10/01 00:34:26;;;;;;;14.15;9.48;;;14.10;99.90;;;;;;4933731;28;20465;-89
2023/10/01 00:36:52;;;;;;;18.20;10.82;;;14.10;99.90;;;;;;4934824;29;20093;-89
2023/10/01 00:39:18;;;;;;;17.52;11.73;;;14.00;99.90;;;;;;4935066;29;20036;-88
2023/10/01 00:41:44;;;;;;;14.13;9.15;;;14.00;99.90;;;;;;4934616;29;20143;-88
2023/10/01 00:44:10;;;;;;;16.83;11.27;;;14.00;99.90;;;;;;4934850;29;20031;-89
2023/10/01 00:46:36;;;;;;;17.70;10.90;;;14.00;99.90;;;;;;4934029;29;20040;-88
2023/10/01 00:49:02;;;;;;;18.65;9.65;;;14.00;99.90;;;;;;4933565;29;20036;-88
2023/10/01 00:51:31;;;;;;;17.20;10.32;;;14.00;99.90;;;;;;4933875;29;20481;-88
2023/10/01 00:53:57;;;;;;;15.43;10.00;;;14.00;99.90;;;;;;4930234;29;20066;-88
2023/10/01 00:56:22;;;;;;;16.70;10.32;;;14.00;99.90;;;;;;4930626;29;20052;-88
2023/10/01 00:58:48;;;;;;;15.75;9.93;;;13.90;99.90;;;;;;4944178;29;20039;-88
2023/10/01 01:01:16;;;;;;;15.40;9.90;;;13.90;99.90;;;;;;4927891;29;20034;-88
2023/10/01 01:03:52;;;;;;;14.30;9.88;;;13.90;99.90;;;;;;4934728;28;20040;-88
2023/10/01 01:06:23;;;;;;;14.77;10.13;;;13.80;99.90;;;;;;4930528;29;20385;-88
2023/10/01 01:08:52;;;;;;;17.73;10.20;;;13.80;99.90;;;;;;4917477;29;20488;-88
2023/10/01 01:11:19;;;;;;;15.90;10.13;;;13.70;99.90;;;;;;4934855;29;20034;-89
2023/10/01 01:13:45;;;;;;;17.63;10.13;;;13.70;99.90;;;;;;4946291;29;20176;-89
2023/10/01 01:16:14;;;;;;;14.82;9.95;;;13.70;99.90;;;;;;4914398;29;20111;-88
2023/10/01 01:18:42;;;;;;;16.50;10.93;;;13.70;99.90;;;;;;4931402;29;20028;-89
2023/10/01 01:21:13;;;;;;;13.63;9.50;;;13.70;99.90;;;;;;4933626;28;20058;-89
2023/10/01 01:23:41;;;;;;;16.92;10.10;;;13.70;99.90;;;;;;4933819;29;20024;-88
2023/10/01 01:26:10;;;;;;;14.80;9.80;;;13.70;99.90;;;;;;4933174;28;20184;-88
2023/10/01 01:28:36;;;;;;;17.60;10.10;;;13.80;99.90;;;;;;4933811;29;20020;-89
2023/10/01 01:31:04;;;;;;;16.27;10.13;;;13.80;99.90;;;;;;4934618;29;20347;-89
2023/10/01 01:33:40;;;;;;;15.15;9.90;;;13.80;99.90;;;;;;4937059;29;20028;-89
2023/10/01 01:36:08;;;;;;;16.75;9.25;;;13.80;99.90;;;;;;4937862;29;20020;-89
2023/10/01 01:38:34;;;;;;;18.25;10.27;;;13.90;99.90;;;;;;4937010;29;20036;-90
2023/10/01 01:41:00;;;;;;;14.02;9.68;;;13.90;99.90;;;;;;4936754;29;20087;-89
2023/10/01 01:43:30;;;;;;;18.40;10.85;;;13.90;99.90;;;;;;4936503;29;20019;-90
2023/10/01 01:46:00;;;;;;;17.50;9.98;;;14.00;99.90;;;;;;4936646;29;20107;-90
2023/10/01 01:50:57;;;;;;;12.77;9.27;;;14.00;99.90;;;;;;4938059;29;20035;-89
2023/10/01 01:53:26;;;;;;;15.85;9.68;;;14.00;99.90;;;;;;4936643;29;20088;-89
2023/10/01 01:55:54;;;;;;;16.15;9.02;;;14.00;99.90;;;;;;4938391;29;20369;-89
2023/10/01 01:58:24;;;;;;;15.18;8.93;;;14.00;99.90;;;;;;4936540;29;20024;-89
2023/10/01 02:01:08;;;;;;;12.00;7.30;;;14.10;99.90;;;;;;4933129;29;20036;-88
2023/10/01 02:03:38;;;;;;;15.98;7.93;;;14.10;99.90;;;;;;4938231;29;20020;-89
2023/10/01 02:06:06;;;;;;;12.77;6.05;;;14.20;99.90;;;;;;4932943;29;20029;-88
2023/10/01 02:08:47;;;;;;;10.90;5.60;;;14.20;99.90;;;;;;4933505;29;20545;-90
2023/10/01 02:11:14;;;;;;;11.98;5.90;;;14.20;99.90;;;;;;4952563;28;20057;-90
2023/10/01 02:13:40;;;;;;;11.48;6.00;;;14.30;99.90;;;;;;4937478;29;20404;-90
2023/10/01 02:18:58;;;;;;;10.38;5.10;;;14.40;99.90;;;;;;4936954;29;20044;-89
2023/10/01 02:21:48;;;;;;;13.65;5.43;;;14.50;99.90;;;;;;4937446;29;20384;-89
2023/10/01 02:24:37;;;;;;;11.48;5.30;;;14.50;99.90;;;;;;4937418;29;20027;-89
2023/10/01 02:27:04;;;;;;;11.88;5.43;;;14.50;99.90;;;;;;4944966;28;20072;-89
2023/10/01 02:29:44;;;;;;;12.65;5.55;;;14.50;99.90;;;;;;4935161;29;20032;-89
2023/10/01 02:32:12;;;;;;;8.23;5.20;;;14.50;99.90;;;;;;4935905;29;20035;-89
2023/10/01 02:34:37;;;;;;;16.40;6.13;;;14.50;99.90;;;;;;4937159;29;20020;-90
2023/10/01 02:37:06;;;;;;;9.80;5.05;;;14.60;99.90;;;;;;4950861;28;20531;-89
2023/10/01 02:39:32;;;;;;;11.25;4.90;;;14.50;99.90;;;;;;4951870;28;20119;-89
2023/10/01 02:44:31;;;;;;;11.30;5.68;;;14.50;99.90;;;;;;4937095;29;20028;-89
2023/10/01 02:47:09;;;;;;;8.18;4.22;;;14.40;99.90;;;;;;4936554;29;20143;-89
2023/10/01 02:49:47;;;;;;;10.00;4.43;;;14.40;99.90;;;;;;4936942;29;20019;-89
2023/10/01 02:52:13;;;;;;;12.50;5.55;;;14.40;99.90;;;;;;4951676;28;20027;-89
2023/10/01 02:54:39;;;;;;;10.27;5.45;;;14.30;99.90;;;;;;4936459;29;20055;-89
2023/10/01 02:57:23;;;;;;;10.98;5.53;;;14.30;99.90;;;;;;4935384;29;20036;-89
2023/10/01 03:02:38;;;;;;;13.88;5.22;;;14.30;99.90;;;;;;4936701;29;20087;-89
2023/10/01 03:05:06;;;;;;;13.88;5.68;;;14.20;99.90;;;;;;4935164;28;20024;-90
2023/10/01 03:07:38;;;;;;;11.65;5.13;;;14.20;99.90;;;;;;4935234;29;20032;-90
2023/10/01 03:10:12;;;;;;;10.30;4.55;;;14.20;99.90;;;;;;4935279;29;20051;-89
2023/10/01 03:12:40;;;;;;;10.90;5.55;;;14.20;99.90;;;;;;4936552;29;20024;-89
2023/10/01 03:17:39;;;;;;;9.82;4.82;;;14.20;99.90;;;;;;4936298;29;20051;-89
2023/10/01 03:20:18;;;;;;;10.13;5.50;;;14.10;99.90;;;;;;4950703;29;20035;-89
2023/10/01 03:22:51;;;;;;;11.05;5.40;;;14.10;99.90;;;;;;4935954;29;20034;-89
2023/10/01 03:25:17;;;;;;;9.15;4.55;;;14.00;99.90;;;;;;4950682;29;20028;-89
2023/10/01 03:27:45;;;;;;;10.57;5.20;;;13.90;99.90;;;;;;4934862;29;20028;-90
2023/10/01 03:30:22;;;;;;;8.73;4.30;;;13.90;99.90;;;;;;4934903;29;20023;-89
2023/10/01 03:32:47;;;;;;;12.27;5.07;;;13.80;99.90;;;;;;4950624;28;20130;-89
2023/10/01 03:35:13;;;;;;;13.55;5.68;;;13.80;99.90;;;;;;4931553;29;20115;-89
2023/10/01 03:37:38;;;;;;;8.90;4.72;;;13.80;99.90;;;;;;4935104;29;20396;-89
2023/10/01 03:40:18;;;;;;;9.98;5.45;;;13.80;99.90;;;;;;4934661;29;20119;-89
2023/10/01 03:42:51;;;;;;;10.10;4.97;;;13.90;99.90;;;;;;4934515;29;20052;-89
2023/10/01 03:47:43;;;;;;;10.43;5.22;;;13.90;99.90;;;;;;4915886;29;20042;-89
2023/10/01 03:50:09;;;;;;;10.75;5.35;;;13.90;99.90;;;;;;4931608;29;20020;-90
2023/10/01 03:52:39;;;;;;;13.15;5.47;;;13.90;99.90;;;;;;4927433;29;20480;-89
2023/10/01 03:55:25;;;;;;;10.73;5.78;;;14.00;99.90;;;;;;4930903;29;20083;-88
2023/10/01 03:58:05;;;;;;;10.40;4.78;;;14.00;99.90;;;;;;4916392;29;20035;-88
2023/10/01 04:00:41;;;;;;;13.25;5.15;;;14.00;99.90;;;;;;4942068;29;20037;-89
2023/10/01 04:03:13;;;;;;;13.73;5.90;;;14.00;99.90;;;;;;4935087;29;20365;-88
2023/10/01 04:05:46;;;;;;;10.98;5.13;;;14.00;99.90;;;;;;4934116;29;20051;-89
2023/10/01 04:08:12;;;;;;;;;;;14.10;99.90;;;;;;4947995;28;20100;-89
2023/10/01 04:10:39;;;;;;;10.95;5.03;;;14.00;99.90;;;;;;4928358;29;20355;-88
2023/10/01 04:13:21;;;;;;;11.00;5.40;;;14.00;99.90;;;;;;4933870;29;20023;-88
2023/10/01 04:15:55;;;;;;;9.63;4.40;;;14.00;99.90;;;;;;4934933;29;20100;-89
2023/10/01 04:18:23;;;;;;;13.13;5.63;;;14.00;99.90;;;;;;4934227;29;20052;-87
2023/10/01 04:23:29;;;;;;;10.73;4.95;;;14.10;99.90;;;;;;4935294;29;20032;-88
2023/10/01 04:26:05;;;;;;;11.13;5.13;;;14.10;99.90;;;;;;4965687;28;20560;-88
2023/10/01 04:28:36;;;;;;;11.43;5.03;;;14.10;99.90;;;;;;4944692;29;20547;-88
2023/10/01 04:31:09;;;;;;;7.97;4.30;;;14.20;99.90;;;;;;4949572;29;20091;-88
2023/10/01 04:33:42;;;;;;;10.38;5.05;;;14.20;99.90;;;;;;4934308;29;20031;-88
2023/10/01 04:36:10;;;;;;;11.48;5.30;;;14.20;99.90;;;;;;4933081;29;20071;-88
2023/10/01 04:38:37;;;;;;;14.60;5.22;;;14.20;99.90;;;;;;4950165;29;20366;-88
2023/10/01 04:41:03;;;;;;;11.25;4.85;;;14.30;99.90;;;;;;4949324;28;20548;-89
2023/10/01 04:43:34;;;;;;;12.10;5.20;;;14.30;99.90;;;;;;4949788;29;20053;-89
2023/10/01 04:46:08;;;;;;;14.97;4.77;;;14.40;99.90;;;;;;4949514;29;20040;-89
2023/10/01 04:48:34;;;;;;;7.63;4.25;;;14.40;99.90;;;;;;4935250;29;20059;-88
2023/10/01 04:51:02;;;;;;;13.52;5.20;;;14.40;99.90;;;;;;4933416;29;20056;-89
2023/10/01 04:53:28;;;;;;;11.63;5.55;;;14.50;99.90;;;;;;4933939;29;20043;-88
2023/10/01 04:56:00;;;;;;;14.25;5.10;;;14.50;99.90;;;;;;4933371;29;20027;-88
2023/10/01 04:58:27;;;;;;;13.15;5.13;;;14.50;99.90;;;;;;4933789;29;20051;-88
2023/10/01 05:00:55;;;;;;;11.07;4.78;;;14.50;99.90;;;;;;4937265;29;20032;-88
2023/10/01 05:03:36;;;;;;;10.48;5.00;;;14.50;99.90;;;;;;4937588;29;20496;-88
2023/10/01 05:06:02;;;;;;;11.63;5.70;;;14.50;99.90;;;;;;4937007;29;20077;-88
2023/10/01 05:08:38;;;;;;;11.00;4.72;;;14.50;99.90;;;;;;4950428;28;20038;-88
2023/10/01 05:11:04;;;;;;;8.57;5.03;;;14.50;99.90;;;;;;4934083;29;20123;-89
2023/10/01 05:13:31;;;;;;;12.38;5.05;;;14.50;99.90;;;;;;4934110;29;20031;-88
2023/10/01 05:15:56;;;;;;;10.85;5.20;;;14.50;99.90;;;;;;4934782;29;20071;-89
2023/10/01 05:18:28;;;;;;;11.35;4.47;;;14.50;99.90;;;;;;4937370;29;20086;-88
2023/10/01 05:21:04;;;;;;;12.18;4.85;;;14.50;99.90;;;;;;4927719;29;20119;-88
2023/10/01 05:23:30;;;;;;;16.48;5.85;;;14.50;99.90;;;;;;4933929;29;20036;-89
2023/10/01 05:25:59;;;;;;;10.68;4.78;;;14.40;99.90;;;;;;4938083;29;20036;-88
2023/10/01 05:28:31;;;;;;;9.05;4.38;;;14.40;99.90;;;;;;4953291;29;20472;-89
2023/10/01 05:31:06;;;;;;;12.50;4.97;;;14.40;99.90;;;;;;4937816;29;20032;-89
2023/10/01 05:33:35;;;;;;;11.73;4.88;;;14.50;99.90;;;;;;4953093;28;20055;-89
2023/10/01 05:36:04;;;;;;;12.15;5.57;;;14.40;99.90;;;;;;4949401;28;20028;-89
2023/10/01 05:38:34;;;;;;;9.93;5.28;;;14.50;99.90;;;;;;4934045;29;20032;-89
2023/10/01 05:41:04;;;;;;;12.20;5.43;;;14.50;99.90;;;;;;4933466;29;20051;-89
2023/10/01 05:43:43;;;;;;;11.88;4.53;;;14.40;99.90;;;;;;4933638;29;20092;-88
2023/10/01 05:46:09;;;;;;;13.57;5.35;;;14.50;99.90;;;;;;4952061;29;20039;-89
2023/10/01 05:48:39;;;;;;;10.73;5.07;;;14.40;99.90;;;;;;4938233;29;20067;-88
2023/10/01 05:51:20;;;;;;;13.65;4.80;;;14.40;99.90;;;;;;4936551;28;20115;-88
2023/10/01 05:53:46;;;;;;;12.60;5.25;;;14.40;99.90;;;;;;4949194;28;20028;-88
2023/10/01 05:56:15;;;;;;;11.27;5.75;;;14.40;99.90;;;;;;4933243;29;20032;-88
2023/10/01 05:58:44;;;;;;;11.35;5.28;;;14.40;99.90;;;;;;4936856;29;20031;-88
2023/10/01 06:01:16;;;;;;;10.02;4.57;;;14.40;99.90;;;;;;4944070;28;20122;-88
2023/10/01 06:03:49;;;;;;;13.57;6.38;;;14.40;99.90;;;;;;4952336;29;20027;-89
2023/10/01 06:06:23;;;;;;;;;;;14.30;99.90;;;;;;4952768;29;20040;-88
2023/10/01 06:08:49;;;;;;;11.00;5.47;;;14.30;99.90;;;;;;4952185;28;20368;-89
2023/10/01 06:11:16;;;;;;;12.10;4.75;;;14.30;99.90;;;;;;4951396;28;20039;-88
2023/10/01 06:13:51;;;;;;;10.80;5.10;;;14.20;99.90;;;;;;4948688;28;20028;-89
2023/10/01 06:16:22;;;;;;;9.85;4.97;;;14.30;99.90;;;;;;4965470;28;20123;-89
2023/10/01 06:18:56;;;;;;;11.25;4.93;;;14.30;99.90;;;;;;4936050;29;20035;-89
2023/10/01 06:21:27;;;;;;;15.63;5.88;;;14.30;99.90;;;;;;4936276;29;20062;-89
2023/10/01 06:23:58;;;;;;;12.10;5.03;;;14.30;99.90;;;;;;4966913;28;20079;-89
2023/10/01 06:29:24;;;;;;;12.95;5.20;;;14.30;99.90;;;;;;4927736;29;20055;-90
2023/10/01 06:32:01;;;;;;;10.50;5.50;;;14.30;99.90;;;;;;4916848;29;20032;-89
2023/10/01 06:34:32;;;;;;;12.05;5.90;;;14.30;99.90;;;;;;4917199;29;20028;-89
2023/10/01 06:37:00;;;;;;;11.60;5.75;;;14.30;99.90;;;;;;4917804;29;20028;-89
2023/10/01 06:39:35;;;;;;;10.98;5.72;;;14.30;99.90;;;;;;4918081;29;20113;-89
2023/10/01 06:42:20;;;;;;;12.60;5.82;;;14.30;99.90;;;;;;4916734;29;20489;-89
2023/10/01 06:44:50;;;;;;;12.10;5.18;;;14.30;99.90;;;;;;4917221;29;20032;-89
2023/10/01 06:47:22;;;;;;;12.60;5.35;;;14.40;99.90;;;;;;4967602;28;20122;-90
2023/10/01 06:52:34;;;;;;;11.57;5.93;;;14.30;99.90;;;;;;4936930;29;20039;-89
2023/10/01 06:55:01;;;;;;;12.38;5.82;;;14.30;99.90;;;;;;4951514;29;20476;-88
2023/10/01 06:57:28;;;;;;;14.02;5.82;;;14.30;99.90;;;;;;4936767;29;20030;-89
2023/10/01 06:59:57;;;;;;;13.07;6.05;;;14.20;99.90;;;;;;4936338;29;20090;-89
2023/10/01 07:02:27;;;;;;;17.23;6.15;;;14.20;99.90;;;;;;4935618;29;20473;-89
2023/10/01 07:04:58;;;;;;;14.20;6.20;;;14.20;99.90;;;;;;4935194;29;20062;-89
2023/10/01 07:07:28;;;;;;;12.45;5.93;;;14.30;99.90;;;;;;4917817;29;20035;-89
2023/10/01 07:09:56;;;;;;;15.27;6.45;;;14.40;99.90;;;;;;4916463;29;20092;-89
2023/10/01 07:12:25;;;;;;;16.88;5.90;;;14.50;99.90;;;;;;4916450;29;20035;-88
2023/10/01 07:14:52;;;;;;;13.18;5.68;;;14.50;99.90;;;;;;4931592;29;20032;-89
2023/10/01 07:17:19;;;;;;;15.00;6.78;;;14.60;99.90;;;;;;4951025;29;20054;-89
2023/10/01 07:19:59;;;;;;;15.07;6.00;;;14.70;99.90;;;;;;4950676;28;20035;-90
2023/10/01 07:22:25;;;;;;;14.40;6.22;;;14.80;99.90;;;;;;4950795;28;20032;-90
2023/10/01 07:24:51;;;;;;;18.70;6.95;;;14.90;99.90;;;;;;4934605;29;20086;-89
2023/10/01 07:27:17;;;;;;;11.75;5.80;;;15.00;99.90;;;;;;4938387;29;20380;-89
2023/10/01 07:29:43;;;;;;;13.32;5.78;;;15.10;99.90;;;;;;4954122;28;20475;-89
2023/10/01 07:32:14;;;;;;;13.95;6.75;;;15.20;99.90;;;;;;4940768;29;20035;-88
2023/10/01 07:34:45;;;;;;;11.75;5.53;;;15.20;99.90;;;;;;4931842;29;20047;-90
2023/10/01 07:37:23;;;;;;;13.57;6.55;;;15.30;99.90;;;;;;4931826;29;20489;-89
2023/10/01 07:39:55;;;;;;;11.88;5.55;;;15.40;99.90;;;;;;4938966;29;20481;-90
2023/10/01 07:42:25;;;;;;;;;;;15.50;99.90;;;;;;4935153;29;20035;-89
2023/10/01 07:44:52;;;;;;;13.75;5.55;;;15.60;99.90;;;;;;4950186;28;20011;-89
2023/10/01 07:47:32;;;;;;;16.77;6.28;;;15.70;99.90;;;;;;4934749;29;20448;-89
2023/10/01 07:49:58;;;;;;;14.05;5.55;;;15.80;99.90;;;;;;4934329;29;20503;-89
2023/10/01 07:52:24;;;;;;;15.75;6.60;;;15.90;99.90;;;;;;4950165;29;20030;-88
2023/10/01 07:54:50;;;;;;;18.73;6.68;;;16.00;99.90;;;;;;4934011;29;20020;-89
2023/10/01 07:57:28;;;;;;;18.10;7.00;;;16.10;99.90;;;;;;4934618;29;20031;-89
2023/10/01 07:59:55;;;;;;;11.32;5.53;;;16.20;99.90;;;;;;4934206;29;20035;-89
2023/10/01 08:02:21;;;;;;;15.90;6.50;;;16.30;99.90;;;;;;4934504;29;20031;-89
2023/10/01 08:04:57;;;;;;;15.82;7.05;;;16.40;99.90;;;;;;4945870;28;20059;-89
2023/10/01 08:07:30;;;;;;;15.32;6.68;;;16.60;99.90;;;;;;4931161;29;20036;-89
2023/10/01 08:09:59;;;;;;;14.98;5.82;;;16.60;99.90;;;;;;4930696;29;20028;-89
2023/10/01 08:12:29;;;;;;;13.27;5.90;;;16.80;99.90;;;;;;4916357;29;20059;-89
2023/10/01 08:17:43;;;;;;;14.90;7.43;;;16.90;99.90;;;;;;4935336;29;20148;-89
2023/10/01 08:20:21;;;;;;;16.98;6.82;;;17.00;99.90;;;;;;4950251;28;20094;-89
2023/10/01 08:25:42;;;;;;;15.52;6.50;;;17.30;99.90;;;;;;4916546;29;20103;-89
2023/10/01 08:30:39;;;;;;;14.52;6.70;;;17.50;99.90;;;;;;4916596;29;20024;-90
2023/10/01 08:33:24;;;;;;;15.82;8.15;;;17.50;99.90;;;;;;4930444;29;20043;-89
2023/10/01 08:38:37;;;;;;;17.05;8.70;;;17.70;99.90;;;;;;4935432;29;20459;-89
2023/10/01 08:41:04;;;;;;;16.52;7.25;;;17.80;99.90;;;;;;4940351;29;20134;-89
2023/10/01 08:43:34;;;;;;;18.70;7.22;;;17.90;99.90;;;;;;4936758;28;20396;-89
2023/10/01 08:46:17;;;;;;;15.73;7.07;;;18.00;99.90;;;;;;4952382;28;20071;-88
2023/10/01 08:48:43;;;;;;;19.05;8.10;;;18.20;99.90;;;;;;4940289;29;20020;-88
2023/10/01 08:51:13;;;;;;;16.08;7.35;;;18.30;99.90;;;;;;4942700;29;20028;-89
2023/10/01 08:53:41;;;;;;;15.50;7.03;;;18.40;99.90;;;;;;4940435;29;20024;-89
2023/10/01 08:56:32;;;;;;;14.40;6.88;;;18.50;99.90;;;;;;4936433;29;20028;-89
2023/10/01 08:58:59;;;;;;;16.05;7.60;;;18.60;99.90;;;;;;4937058;29;20473;-89
2023/10/01 09:01:27;;;;;;;17.88;8.32;;;18.70;99.90;;;;;;4940201;29;20063;-87
2023/10/01 09:03:55;;;;;;;17.23;7.80;;;18.80;99.90;;;;;;4939882;29;20441;-88
2023/10/01 09:06:28;;;;;;;15.75;7.10;;;18.80;99.90;;;;;;4936791;29;20040;-89
2023/10/01 09:08:59;;;;;;;14.45;7.28;;;18.90;99.90;;;;;;4936810;29;20543;-88
2023/10/01 09:11:47;;;;;;;16.50;7.50;;;19.00;99.90;;;;;;4937039;29;20089;-88
2023/10/01 09:14:20;;;;;;;15.82;7.35;;;19.20;99.90;;;;;;4937138;29;20123;-89
2023/10/01 09:16:49;;;;;;;16.55;7.07;;;19.30;99.90;;;;;;4962583;28;20043;-89
2023/10/01 09:19:31;;;;;;;15.88;6.80;;;19.40;99.90;;;;;;4939918;29;20032;-88
2023/10/01 09:22:15;;;;;;;15.43;6.75;;;19.50;99.90;;;;;;4939492;29;20026;-89
2023/10/01 09:24:43;;;;;;;16.77;7.85;;;19.40;99.90;;;;;;4940919;29;20032;-88
2023/10/01 09:27:21;;;;;;;18.75;7.40;;;19.40;99.90;;;;;;4941142;29;20039;-89
2023/10/01 09:29:56;;;;;;;19.95;7.55;;;19.30;99.90;;;;;;4955700;28;20095;-89
2023/10/01 09:33:23;;;;;;;15.95;6.78;;;19.30;99.90;;;;;;4940987;29;20031;-88
2023/10/01 09:35:40;;;;;;;16.73;8.00;;;19.30;99.90;;;;;;4943652;28;20043;-88
2023/10/01 09:38:10;;;;;;;16.88;6.90;;;19.20;99.90;;;;;;4939544;28;20020;-89
2023/10/01 09:40:44;;;;;;;19.45;7.47;;;19.20;99.90;;;;;;4939694;28;20056;-88
2023/10/01 09:43:18;;;;;;;16.48;7.75;;;19.30;99.90;;;;;;4939850;29;20117;-88
2023/10/01 09:45:48;;;;;;;21.08;8.23;;;19.40;99.90;;;;;;4938813;29;20043;-89
2023/10/01 09:48:29;;;;;;;17.90;7.90;;;19.50;99.90;;;;;;4952393;28;20028;-89
2023/10/01 09:51:19;;;;;;;17.60;7.07;;;19.60;99.90;;;;;;4936396;29;20114;-89
2023/10/01 09:53:47;;;;;;;16.30;7.65;;;19.70;99.90;;;;;;4937703;29;20449;-88
2023/10/01 09:56:14;;;;;;;17.88;7.93;;;19.80;99.90;;;;;;4937701;29;20052;-88
2023/10/01 09:58:46;;;;;;;21.27;8.10;;;19.80;99.90;;;;;;4936216;29;20456;-89
2023/10/01 10:01:17;;;;;;;15.57;6.93;;;19.90;99.90;;;;;;4952634;29;20039;-88
2023/10/01 10:03:43;;;;;;;16.20;7.63;;;19.90;99.90;;;;;;4933014;29;20493;-88
2023/10/01 10:06:10;;;;;;;18.55;7.65;;;20.00;99.90;;;;;;4933230;29;20051;-88
2023/10/01 10:08:38;;;;;;;19.83;7.85;;;20.10;99.90;;;;;;4933200;29;20059;-88
2023/10/01 10:11:08;;;;;;;17.60;7.57;;;20.20;99.90;;;;;;4962954;28;20031;-87
2023/10/01 10:13:45;;;;;;;16.63;7.25;;;20.30;99.90;;;;;;4936332;29;20028;-87
2023/10/01 10:16:30;;;;;;;16.67;7.70;;;20.40;99.90;;;;;;4952170;28;20031;-89
2023/10/01 10:19:10;;;;;;;16.83;7.95;;;20.50;99.90;;;;;;4966412;28;20492;-88
2023/10/01 10:22:05;;;;;;;16.23;7.55;;;20.60;99.90;;;;;;4935976;29;20032;-88
2023/10/01 10:24:36;;;;;;;15.20;6.97;;;20.70;99.90;;;;;;4936076;29;20031;-89
2023/10/01 10:27:09;;;;;;;20.40;8.23;;;20.70;99.90;;;;;;4948105;28;20039;-87
2023/10/01 10:29:47;;;;;;;20.52;7.93;;;20.80;99.90;;;;;;4918122;29;20063;-90
2023/10/01 10:32:13;;;;;;;15.02;6.95;;;20.90;99.90;;;;;;4932410;29;20449;-88
2023/10/01 10:35:06;;;;;;;16.73;6.60;;;20.90;99.90;;;;;;4942278;29;20492;-89
2023/10/01 10:37:38;;;;;;;17.67;7.43;;;21.00;99.90;;;;;;4917750;29;20032;-88
2023/10/01 10:43:07;;;;;;;17.20;7.30;;;21.10;99.90;;;;;;4917776;29;20028;-87
2023/10/01 10:45:44;;;;;;;17.33;6.50;;;21.20;99.90;;;;;;4919684;29;20532;-88
2023/10/01 10:48:14;;;;;;;15.45;6.38;;;21.20;99.90;;;;;;4938813;29;20063;-89
2023/10/01 10:50:53;;;;;;;15.15;6.65;;;21.40;99.90;;;;;;4917904;29;20107;-88
2023/10/01 10:53:29;;;;;;;13.35;6.85;;;21.40;99.90;;;;;;4947165;29;20433;-89
2023/10/01 10:56:10;;;;;;;15.48;6.82;;;21.50;99.90;;;;;;4917390;29;20164;-88
2023/10/01 10:58:43;;;;;;;13.27;6.13;;;21.50;99.90;;;;;;4932103;29;20024;-88
2023/10/01 11:01:16;;;;;;;15.77;6.88;;;21.60;99.90;;;;;;4932205;29;20090;-89
2023/10/01 11:03:43;;;;;;;14.48;6.22;;;21.60;99.90;;;;;;4931957;29;20028;-89
2023/10/01 11:06:44;;;;;;;14.57;6.50;;;21.70;99.90;;;;;;4932150;29;20493;-89
2023/10/01 11:09:25;;;;;;;15.75;6.95;;;21.70;99.90;;;;;;4918113;29;20137;-89
2023/10/01 11:12:01;;;;;;;16.33;6.90;;;21.80;99.90;;;;;;4931655;29;20031;-88
2023/10/01 11:14:27;;;;;;;16.63;7.15;;;21.90;99.90;;;;;;4936112;28;20024;-88
2023/10/01 11:16:52;;;;;;;15.25;6.40;;;22.00;99.90;;;;;;4966727;28;20055;-88
2023/10/01 11:19:25;;;;;;;12.50;6.05;;;22.00;99.90;;;;;;4934930;29;20020;-89
2023/10/01 11:21:58;;;;;;;17.33;7.22;;;22.00;99.90;;;;;;4950550;29;20115;-88
2023/10/01 11:24:29;;;;;;;15.32;7.22;;;22.10;99.90;;;;;;4954125;28;20118;-89
2023/10/01 11:27:25;;;;;;;12.90;5.43;;;22.10;99.90;;;;;;4934586;29;20397;-89
2023/10/01 11:30:13;;;;;;;17.95;7.25;;;22.10;99.90;;;;;;4950369;29;20558;-89
2023/10/01 11:33:13;;;;;;;11.82;5.80;;;22.10;99.90;;;;;;4947611;29;20032;-88
2023/10/01 11:35:42;;;;;;;16.50;6.65;;;22.10;99.90;;;;;;4945075;28;20028;-88
2023/10/01 11:38:20;;;;;;;15.90;6.05;;;22.10;99.90;;;;;;4935950;29;20023;-89
2023/10/01 11:44:00;;;;;;;12.05;5.18;;;22.10;99.90;;;;;;4917135;29;20039;-88
2023/10/01 11:46:35;;;;;;;17.55;7.15;;;22.10;99.90;;;;;;4935076;28;20408;-89
2023/10/01 11:49:10;;;;;;;14.10;5.70;;;22.10;99.90;;;;;;4931100;29;20028;-88
2023/10/01 11:52:00;;;;;;;13.57;5.22;;;22.10;99.90;;;;;;4931306;29;20024;-88
2023/10/01 11:54:52;;;;;;;14.95;6.03;;;22.20;99.90;;;;;;4931542;29;20024;-89
2023/10/01 11:57:31;;;;;;;14.13;5.03;;;22.30;99.90;;;;;;4941143;29;20478;-88
2023/10/01 11:59:58;;;;;;;12.07;4.85;;;22.40;99.90;;;;;;4932229;29;20036;-88
2023/10/01 12:02:30;;;;;;;14.35;5.93;;;22.50;99.90;;;;;;4931116;29;20473;-89
2023/10/01 12:04:57;;;;;;;11.38;4.63;;;22.60;99.90;;;;;;4934582;29;20863;-88
2023/10/01 12:07:26;;;;;;;12.52;5.40;;;22.70;99.90;;;;;;4938007;29;20036;-88
2023/10/01 12:09:53;;;;;;;11.82;5.00;;;22.70;99.90;;;;;;4930001;29;20032;-89
2023/10/01 12:12:39;;;;;;;11.70;4.97;;;22.80;99.90;;;;;;4927276;29;20042;-88
2023/10/01 12:17:50;;;;;;;11.00;4.30;;;22.90;99.90;;;;;;4933466;29;20187;-88
2023/10/01 12:20:31;;;;;;;10.90;4.53;;;22.90;99.90;;;;;;4934019;29;20539;-88
2023/10/01 12:28:29;;;;;;;11.88;4.95;;;23.30;99.90;;;;;;4935266;29;20392;-88
2023/10/01 12:30:57;;;;;;;12.60;5.10;;;23.40;99.90;;;;;;4933525;29;20164;-89
2023/10/01 12:33:38;;;;;;;13.05;5.05;;;23.50;99.90;;;;;;4934135;29;20027;-88
2023/10/01 12:36:31;;;;;;;15.55;5.65;;;23.50;99.90;;;;;;4930590;29;20488;-88
2023/10/01 12:39:32;;;;;;;16.15;6.07;;;23.50;99.90;;;;;;4915485;29;20160;-88
2023/10/01 12:44:25;;;;;;;14.07;5.38;;;23.50;99.90;;;;;;4935307;29;20027;-89
2023/10/01 12:47:01;;;;;;;8.35;4.25;;;23.50;99.90;;;;;;4949699;28;20110;-88
2023/10/01 12:49:33;;;;;;;12.45;5.68;;;23.70;99.90;;;;;;4934930;29;20074;-89
2023/10/01 12:52:00;;;;;;;10.60;4.60;;;23.80;99.90;;;;;;4949569;29;20035;-89
2023/10/01 12:54:25;;;;;;;12.15;4.70;;;23.80;99.90;;;;;;4946302;29;20024;-89
2023/10/01 12:57:12;;;;;;;9.32;4.38;;;23.90;99.90;;;;;;4932367;29;20392;-88
2023/10/01 12:59:40;;;;;;;10.35;4.70;;;24.00;99.90;;;;;;4929114;29;20026;-88
2023/10/01 13:02:28;;;;;;;10.38;4.35;;;24.10;99.90;;;;;;4933224;29;20389;-89
2023/10/01 13:07:53;;;;;;;11.18;4.68;;;24.20;99.90;;;;;;4934587;29;20095;-89
2023/10/01 13:10:33;;;;;;;12.00;5.00;;;24.30;99.90;;;;;;4933880;29;20542;-88
2023/10/01 13:13:01;;;;;;;9.43;4.82;;;24.30;99.90;;;;;;4933257;29;20066;-89
2023/10/01 13:15:30;;;;;;;11.90;4.97;;;24.30;99.90;;;;;;4949250;29;20048;-89
2023/10/01 13:18:15;;;;;;;12.98;5.50;;;24.30;99.90;;;;;;4933001;29;20079;-88
2023/10/01 13:20:58;;;;;;;12.98;5.30;;;24.20;99.90;;;;;;4935199;29;20057;-88
2023/10/01 13:23:28;;;;;;;12.52;5.47;;;24.10;99.90;;;;;;4937245;29;20031;-89
2023/10/01 13:26:09;;;;;;;13.38;4.97;;;24.10;99.90;;;;;;4936385;29;20472;-88
2023/10/01 13:28:51;;;;;;;11.32;5.22;;;24.20;99.90;;;;;;4936786;29;20548;-88
2023/10/01 13:39:26;;;;;;;14.45;6.15;;;24.60;99.90;;;;;;4937594;29;20392;-88
2023/10/01 14:09:48;;;;;;;14.38;5.90;;;25.50;99.30;;;;;;4937573;29;20447;-89
2023/10/01 14:12:41;;;;;;;14.60;6.90;;;25.50;99.00;;;;;;4933202;29;20028;-89
2023/10/01 14:15:20;;;;;;;12.88;5.90;;;25.50;98.70;;;;;;4936057;29;20111;-89
2023/10/01 14:17:55;;;;;;;;;;;25.50;98.60;;;;;;4936058;29;20078;-89
2023/10/01 14:23:22;;;;;;;15.10;6.80;;;25.50;98.90;;;;;;4937737;29;20028;-89
2023/10/01 14:25:58;;;;;;;15.18;7.35;;;25.50;98.60;;;;;;4946862;28;20495;-90
2023/10/01 14:28:27;;;;;;;14.23;6.70;;;25.40;98.60;;;;;;4968894;28;20082;-89
2023/10/01 14:31:02;;;;;;;12.45;6.88;;;25.30;98.90;;;;;;4951337;29;20051;-88
2023/10/01 14:33:28;;;;;;;13.68;6.72;;;25.20;98.70;;;;;;4951457;29;20028;-89
2023/10/01 14:35:55;;;;;;;12.57;6.30;;;25.00;98.60;;;;;;4936893;29;20103;-88